1997 CHANTELLE:DANIELLA (1996325S08104)


On this page: IBTrACS data - Map and Plots - Positions - Intensities - Original source data

Summary

Start Nov 20
End Dec 11
Basin SI
LMI 120 kt
Sources jtwc_sh
jtwc_sh
reunion
reunion
neumann
neumann
In WMO? Yes
Previous storm 1997 CYRIL (SP)
Previous in basin 1997 BELLAMINE (SI)
Concurrent storms 1996 MARCO (NA)
1997 CYRIL (SP)
1997 CHANTELLE (SI)
1996 MISSING (WP)
1996 MISSING (NI)
1997 ELVINA (SI)
1997 NICHOLAS (SI)
Next in basin 1997 ELVINA (SI)
Next storm 1996 MISSING (WP)

top of page IBTrACS Data: File Access

Image of storm

top of page Plots:

Map of storm track will not appear if FTP is down
Time series of cyclone Maximum Sustained Wind will not appear if FTP is down
Time series of cyclone Minimum Central Pressure will not appear if FTP is down

top of page Track Data:Position

jtwc_sh jtwc_sh reunion reunion neumann neumann
Date Lat Lon Lat Lon Lat Lon Lat Lon Lat Lon Lat Lon
1996-11-20 00:00:00 -7.5 103.7 -7.5 103.7
1996-11-20 06:00:00 -7.1 102.3 -7.1 102.3
1996-11-20 12:00:00 -6.8 100.9 -6.8 100.9
1996-11-20 18:00:00 -6.7 99.6 -6.7 99.6
1996-11-21 00:00:00 -6.7 98.5 -6.7 98.5
1996-11-21 06:00:00 -6.7 97.6 -6.7 97.6
1996-11-21 12:00:00 -6.7 97.0 -6.7 97.0
1996-11-21 18:00:00 -6.7 96.5 -6.7 96.5
1996-11-22 00:00:00 -6.7 96.2 -6.7 96.2
1996-11-22 06:00:00 -6.7 95.9 -6.7 95.9
1996-11-22 12:00:00 -6.7 95.6 -6.7 95.6
1996-11-22 18:00:00 -6.8 95.2 -6.8 95.2
1996-11-23 00:00:00 -6.6 94.8 -6.6 94.8
1996-11-23 06:00:00 -6.6 94.3 -6.8 94.2 -6.6 94.3
1996-11-23 12:00:00 -6.4 93.6 -6.7 93.4 -6.4 93.6
1996-11-23 18:00:00 -6.3 92.8 -6.5 92.7 -6.3 92.8
1996-11-24 00:00:00 -6.4 91.9 -6.3 91.9 -6.4 91.9
1996-11-24 06:00:00 -6.6 90.9 -6.4 90.9 -6.6 90.9
1996-11-24 12:00:00 -6.8 89.7 -6.8 89.8 -6.8 89.7
1996-11-24 18:00:00 -7.1 88.3 -7.2 88.1 -7.1 88.3
1996-11-25 00:00:00 -7.4 86.8 -7.4 86.9 -7.4 86.8
1996-11-25 06:00:00 -7.8 85.4 -7.7 85.8 -7.8 85.4
1996-11-25 12:00:00 -8.3 84.3 -8.2 84.4 -8.3 84.3
1996-11-25 18:00:00 -8.7 83.2 -8.7 83.3 -8.7 83.2
1996-11-26 00:00:00 -8.8 82.1 -8.9 82.3 -8.8 82.1
jtwc_sh jtwc_sh reunion reunion neumann neumann
1996-11-26 06:00:00 -8.9 81.0 -8.9 81.3 -8.9 81.0
1996-11-26 12:00:00 -8.9 79.9 -8.9 80.3 -8.9 79.9
1996-11-26 18:00:00 -8.9 79.0 -8.9 79.4 -8.9 79.0
1996-11-27 00:00:00 -8.8 78.2 -8.9 78.5 -8.8 78.2
1996-11-27 06:00:00 -8.5 77.6 -8.9 77.7 -8.5 77.6
1996-11-27 12:00:00 -8.1 77.0 -8.8 77.3 -8.1 77.0
1996-11-27 18:00:00 -7.7 76.4 -8.1 76.7 -7.7 76.4
1996-11-28 00:00:00 -7.2 75.9 -7.2 76.1 -7.2 75.9
1996-11-28 06:00:00 -6.6 75.5 -6.3 75.6 -6.6 75.5
1996-11-28 12:00:00 -6.0 75.2 -5.8 75.2 -6.0 75.2
1996-11-28 18:00:00 -5.3 74.8 -5.5 75.0 -5.3 74.8
1996-11-29 00:00:00 -4.6 74.5 -5.5 74.5 -4.6 74.5
1996-11-29 06:00:00 -3.9 74.1 -5.7 73.9 -3.9 74.1
1996-11-29 12:00:00 -3.6 73.7 -6.0 73.3 -3.6 73.7
1996-11-29 18:00:00 -3.5 73.4 -6.1 72.8 -3.5 73.4
1996-11-30 00:00:00 -3.5 73.1 -6.0 72.0 -3.5 73.1
1996-11-30 06:00:00 -3.6 72.8 -3.6 72.8
1996-11-30 12:00:00 -3.8 72.3 -3.8 72.3
1996-11-30 18:00:00 -4.1 71.7 -4.1 71.7
1996-12-01 00:00:00 -4.6 71.0 -4.6 71.0
1996-12-01 06:00:00 -5.4 70.1 -5.4 70.1
1996-12-01 12:00:00 -6.5 68.9 -6.5 68.9 -6.5 68.9 -6.5 68.9
1996-12-01 18:00:00 -7.6 67.6 -7.6 67.6
1996-12-02 00:00:00 -8.5 66.1 -8.5 66.1
jtwc_sh jtwc_sh reunion reunion neumann neumann
1996-12-02 06:00:00 -9.3 64.7 -9.6 64.9 -9.3 64.7
1996-12-02 12:00:00 -9.7 63.5 -10.0 63.7 -9.7 63.5
1996-12-02 18:00:00 -9.9 62.5 -10.1 62.6 -9.9 62.5
1996-12-03 00:00:00 -10.4 61.8 -10.3 61.6 -10.4 61.8
1996-12-03 06:00:00 -10.8 61.2 -10.8 61.3 -10.8 61.2
1996-12-03 12:00:00 -11.4 60.8 -11.4 61.0 -11.4 60.8
1996-12-03 18:00:00 -12.0 60.5 -12.0 60.7 -12.0 60.5
1996-12-04 00:00:00 -12.4 60.1 -12.5 60.4 -12.4 60.1
1996-12-04 06:00:00 -12.8 59.5 -12.9 59.8 -12.8 59.5
1996-12-04 12:00:00 -13.1 58.9 -13.3 58.9 -13.1 58.9
1996-12-04 18:00:00 -13.4 58.3 -13.5 58.1 -13.4 58.3
1996-12-05 00:00:00 -13.6 57.6 -13.8 57.3 -13.6 57.6
1996-12-05 06:00:00 -13.9 56.9 -13.9 56.8 -13.9 56.9
1996-12-05 12:00:00 -14.1 56.5 -14.2 56.5 -14.1 56.5
1996-12-05 18:00:00 -14.2 56.1 -14.4 56.1 -14.2 56.1
1996-12-06 00:00:00 -14.4 55.8 -14.5 55.8 -14.4 55.8
1996-12-06 06:00:00 -14.8 55.7 -14.8 55.8 -14.8 55.7
1996-12-06 12:00:00 -15.3 55.8 -15.2 55.8 -15.3 55.8
1996-12-06 18:00:00 -15.8 55.7 -15.9 55.7 -15.8 55.7
1996-12-07 00:00:00 -16.4 55.6 -16.5 55.4 -16.4 55.6
1996-12-07 06:00:00 -17.0 55.4 -17.2 55.4 -17.0 55.4
1996-12-07 12:00:00 -17.7 55.2 -17.9 55.4 -17.7 55.2
1996-12-07 18:00:00 -18.4 55.4 -18.4 55.5 -18.4 55.4
1996-12-08 00:00:00 -19.0 55.8 -19.1 55.8 -19.0 55.8
jtwc_sh jtwc_sh reunion reunion neumann neumann
1996-12-08 06:00:00 -19.7 56.2 -19.8 56.3 -19.7 56.2
1996-12-08 12:00:00 -20.3 56.7 -20.7 56.8 -20.3 56.7
1996-12-08 18:00:00 -20.9 57.2 -21.4 57.2 -20.9 57.2
1996-12-09 00:00:00 -21.6 57.6 -21.9 57.6 -21.6 57.6
1996-12-09 06:00:00 -22.3 57.9 -22.5 57.9 -22.3 57.9
1996-12-09 12:00:00 -22.9 58.2 -23.1 58.0 -22.9 58.2
1996-12-09 18:00:00 -23.5 58.3 -23.6 58.1 -23.5 58.3
1996-12-10 00:00:00 -24.1 58.3 -24.3 58.0 -24.1 58.3
1996-12-10 06:00:00 -24.7 58.2 -25.1 58.5 -24.7 58.2
1996-12-10 12:00:00 -25.7 59.2
1996-12-10 18:00:00 -26.2 59.8
1996-12-11 00:00:00 -25.9 60.5

top of pageTrack Data:Intensity

jtwc_sh jtwc_sh reunion reunion neumann neumann
Date Wind Pres Wind Pres Wind Pres Wind Pres Wind Pres Wind Pres
1996-11-20 00:00:00 15. 15.
1996-11-20 06:00:00 15. 15.
1996-11-20 12:00:00 15. 15.
1996-11-20 18:00:00 15. 15.
1996-11-21 00:00:00 15. 15.
1996-11-21 06:00:00 15. 15.
1996-11-21 12:00:00 20. 20.
1996-11-21 18:00:00 20. 20.
1996-11-22 00:00:00 20. 20.
1996-11-22 06:00:00 20. 20.
1996-11-22 12:00:00 20. 20.
1996-11-22 18:00:00 20. 20.
1996-11-23 00:00:00 25. 25.
1996-11-23 06:00:00 25. 25. 1000. 25.
1996-11-23 12:00:00 25. 25. 999. 25.
1996-11-23 18:00:00 25. 25. 999. 25.
1996-11-24 00:00:00 30. 30. 997. 30.
1996-11-24 06:00:00 35. 30. 997. 35.
1996-11-24 12:00:00 35. 30. 997. 35.
1996-11-24 18:00:00 40. 30. 997. 40.
1996-11-25 00:00:00 45. 30. 997. 45.
1996-11-25 06:00:00 50. 30. 997. 50.
1996-11-25 12:00:00 55. 30. 997. 55.
1996-11-25 18:00:00 60. 30. 995. 60.
1996-11-26 00:00:00 65. 40. 988. 65.
jtwc_sh jtwc_sh reunion reunion neumann neumann
1996-11-26 06:00:00 65. 45. 983. 65.
1996-11-26 12:00:00 65. 45. 983. 65.
1996-11-26 18:00:00 65. 45. 983. 65.
1996-11-27 00:00:00 65. 45. 983. 65.
1996-11-27 06:00:00 60. 45. 983. 60.
1996-11-27 12:00:00 60. 50. 980. 60.
1996-11-27 18:00:00 60. 50. 980. 60.
1996-11-28 00:00:00 55. 50. 980. 55.
1996-11-28 06:00:00 50. 45. 983. 50.
1996-11-28 12:00:00 45. 40. 988. 45.
1996-11-28 18:00:00 40. 30. 995. 40.
1996-11-29 00:00:00 35. 25. 999. 35.
1996-11-29 06:00:00 30. 25. 1000. 30.
1996-11-29 12:00:00 25. 25. 1000. 25.
1996-11-29 18:00:00 25. 25. 1000. 25.
1996-11-30 00:00:00 20. 25. 1002. 20.
1996-11-30 06:00:00 20. 20.
1996-11-30 12:00:00 20. 20.
1996-11-30 18:00:00 20. 20.
1996-12-01 00:00:00 20. 20.
1996-12-01 06:00:00 20. 20.
1996-12-01 12:00:00 20. 20. 20. 20.
1996-12-01 18:00:00 20. 20.
1996-12-02 00:00:00 25. 25.
jtwc_sh jtwc_sh reunion reunion neumann neumann
1996-12-02 06:00:00 25. 25. 1000. 25.
1996-12-02 12:00:00 25. 25. 999. 25.
1996-12-02 18:00:00 30. 28. 997. 30.
1996-12-03 00:00:00 30. 35. 992. 30.
1996-12-03 06:00:00 35. 35. 990. 35.
1996-12-03 12:00:00 35. 40. 988. 35.
1996-12-03 18:00:00 35. 45. 985. 35.
1996-12-04 00:00:00 50. 45. 983. 50.
1996-12-04 06:00:00 65. 50. 980. 65.
1996-12-04 12:00:00 70. 55. 975. 70.
1996-12-04 18:00:00 70. 60. 967. 70.
1996-12-05 00:00:00 80. 70. 955. 80.
1996-12-05 06:00:00 95. 80. 945. 95.
1996-12-05 12:00:00 110. 90. 930. 110.
1996-12-05 18:00:00 120. 100. 915. 120.
1996-12-06 00:00:00 120. 100. 915. 120.
1996-12-06 06:00:00 120. 100. 915. 120.
1996-12-06 12:00:00 120. 100. 915. 120.
1996-12-06 18:00:00 115. 95. 925. 115.
1996-12-07 00:00:00 105. 90. 930. 105.
1996-12-07 06:00:00 100. 85. 935. 100.
1996-12-07 12:00:00 95. 80. 945. 95.
1996-12-07 18:00:00 90. 75. 950. 90.
1996-12-08 00:00:00 90. 70. 955. 90.
jtwc_sh jtwc_sh reunion reunion neumann neumann
1996-12-08 06:00:00 85. 70. 960. 85.
1996-12-08 12:00:00 80. 65. 962. 80.
1996-12-08 18:00:00 75. 60. 967. 75.
1996-12-09 00:00:00 70. 55. 975. 70.
1996-12-09 06:00:00 60. 45. 984. 60.
1996-12-09 12:00:00 50. 40. 988. 50.
1996-12-09 18:00:00 35. 30. 995. 35.
1996-12-10 00:00:00 30. 25. 1000. 30.
1996-12-10 06:00:00 25. 25. 1002. 25.
1996-12-10 12:00:00 20. 1004.
1996-12-10 18:00:00 20. 1006.
1996-12-11 00:00:00 20. 1008.

top of page Links to source data

Source Source file Format
jtwc_sh bsh071997.txt ATCF
jtwc_sh bsh081997.txt ATCF
reunion WMO-Best-Tracks.txt:Line=17672:chantelle WMO (old format)
reunion WMO-Best-Tracks.txt:Line=17700:daniella WMO (old format)
neumann tracks.sh:Storm=1071:CHANTELLE:BSH071997:JTWC HURDAT
neumann tracks.sh:Storm=1072:DANIELLA:BSH081997:JTWC HURDAT